< Typhoon 199301 1993 Season Typhoon 199303 >
Typhoon 199302 (KORYN)
General InformationTrack Information on Google MapsDetailed Wind InformationList of All Images || Disaster Info.ResourceGoogle EarthGE AnimationAtom FeedGeoJSON
Detalied Best Track (Time Zone = UTC)
Year Month Day Hour Lat. Long. Pressure (hPa) Wind (kt) Class Image Chart
1993 6 15 18 4.2 156.5 1008 0 2 Image Chart
1993 6 16 00 4.6 156.8 1008 0 2 Image Chart
1993 6 16 06 5.0 157.1 1008 0 2 Image Chart
1993 6 16 12 5.8 157.2 1008 0 2 Image Chart
1993 6 16 18 6.4 157.0 1008 0 2 Image Chart
1993 6 17 00 6.7 156.6 1008 0 2 Image Chart
1993 6 17 06 6.8 155.9 1006 0 2 Image Chart
1993 6 17 12 6.9 155.2 1008 0 2 Image Chart
1993 6 17 18 7.2 154.6 1006 0 2 Image Chart
1993 6 18 00 7.4 154.3 1006 0 2 Image Chart
1993 6 18 06 7.5 153.9 1006 0 2 Image Chart
1993 6 18 12 7.5 153.3 1008 0 2 Image Chart
1993 6 18 18 7.5 152.4 1008 0 2 Image Chart
1993 6 19 00 7.4 151.1 1008 0 2 Image Chart
1993 6 19 06 7.4 150.2 1006 0 2 Image Chart
1993 6 19 12 7.4 149.2 1010 0 2 Image Chart
1993 6 19 18 7.3 147.9 1008 0 2 Image Chart
1993 6 20 00 7.3 147.3 1008 0 2 Image Chart
1993 6 20 06 7.3 146.7 1008 0 2 Image Chart
1993 6 20 12 7.3 146.2 1008 0 2 Image Chart
1993 6 20 18 7.3 145.8 1008 0 2 Image Chart
1993 6 21 00 7.4 145.2 1008 0 2 Image Chart
1993 6 21 06 7.8 143.9 1006 0 2 Image Chart
1993 6 21 12 8.2 142.8 1002 35 3 Image Chart
1993 6 21 18 8.8 141.6 996 35 3 Image Chart
1993 6 22 00 9.7 140.1 994 40 3 Image Chart
1993 6 22 06 10.2 139.0 990 45 3 Image Chart
1993 6 22 12 10.6 138.0 985 50 4 Image Chart
1993 6 22 18 11.1 136.7 975 60 4 Image Chart
1993 6 23 00 11.7 135.2 965 70 5 Image Chart
1993 6 23 06 12.2 134.3 955 75 5 Image Chart
1993 6 23 12 12.7 133.3 945 85 5 Image Chart
1993 6 23 18 13.1 132.1 935 90 5 Image Chart
1993 6 24 00 13.4 130.9 920 100 5 Image Chart
1993 6 24 06 13.6 129.8 910 105 5 Image Chart
1993 6 24 12 14.0 128.8 905 105 5 Image Chart
1993 6 24 18 14.4 127.4 905 105 5 Image Chart
1993 6 25 00 15.0 126.2 910 105 5 Image Chart
1993 6 25 06 15.5 125.1 915 100 5 Image Chart
1993 6 25 12 16.3 124.0 920 95 5 Image Chart
1993 6 25 18 17.0 122.6 930 90 5 Image Chart
1993 6 26 00 17.2 121.1 940 85 5 Image Chart
1993 6 26 06 17.8 120.0 945 80 5 Image Chart
1993 6 26 12 18.9 118.6 950 80 5 Image Chart
1993 6 26 18 19.7 116.8 955 75 5 Image Chart
1993 6 27 00 20.0 115.3 960 70 5 Image Chart
1993 6 27 06 20.4 114.1 965 70 5 Image Chart
1993 6 27 12 21.3 112.7 970 65 5 Image Chart
1993 6 27 18 21.8 111.3 975 60 4 Image Chart
1993 6 28 00 22.1 109.6 990 45 3 Image Chart
1993 6 28 06 22.2 107.6 996 35 3 Image Chart
1993 6 28 12 22.4 106.3 998 0 2 Image Chart
1993 6 28 18 22.7 106.1 1000 0 2 Image Chart
1993 6 29 00 23.0 106.0 1002 0 2 Image Chart
1993 6 29 06 23.3 106.2 1002 0 2 Image Chart
Japan Meteorological Agency Best Track Data | Correction Date : 1994-01-10
< Typhoon 199301 1993 Season Typhoon 199303 >

Help